| time (UTC) | temp F | wind direction | speed MPH | gust MPH | rain 1hr in | rain 24hr in | rain mn in | humidity % | barometer mb |
| 20260508111050 | 62 | 358 | 0.0 | 1.0 | 0.00 | 0.00 | 0.00 | 37 | 1011.5 |
| 20260508110050 | 62 | 0 | 0.0 | 0.0 | 0.00 | 0.00 | 0.00 | 37 | 1011.5 |
| 20260508105033 | 62 | 336 | 0.0 | 1.0 | 0.00 | 0.00 | 0.00 | 38 | 1011.5 |
| 20260508104033 | 61 | 331 | 0.0 | 1.0 | 0.00 | 0.00 | 0.00 | 39 | 1011.5 |
| 20260508103033 | 61 | 308 | 0.0 | 1.0 | 0.00 | 0.00 | 0.00 | 40 | 1011.5 |
| 20260508102048 | 61 | 0 | 0.0 | 0.0 | 0.00 | 0.00 | 0.00 | 40 | 1011.5 |
| 20260508101033 | 61 | 0 | 0.0 | 0.0 | 0.00 | 0.00 | 0.00 | 39 | 1011.4 |
| 20260508100033 | 61 | 0 | 0.0 | 0.0 | 0.00 | 0.00 | 0.00 | 39 | 1011.4 |
| 20260508095033 | 62 | 0 | 0.0 | 0.0 | 0.00 | 0.00 | 0.00 | 39 | 1011.4 |
| 20260508094033 | 62 | 0 | 0.0 | 0.0 | 0.00 | 0.00 | 0.00 | 38 | 1011.4 |
| 20260508093033 | 63 | 0 | 0.0 | 0.0 | 0.00 | 0.00 | 0.00 | 37 | 1011.5 |
| 20260508092033 | 63 | 71 | 0.0 | 1.0 | 0.00 | 0.00 | 0.00 | 35 | 1011.5 |
| 20260508091031 | 63 | 61 | 0.0 | 1.0 | 0.00 | 0.00 | 0.00 | 36 | 1011.5 |
| 20260508090105 | 63 | 0 | 0.0 | 0.0 | 0.00 | 0.00 | 0.00 | 35 | 1011.5 |
| 20260508085033 | 63 | 0 | 0.0 | 0.0 | 0.00 | 0.00 | 0.00 | 35 | 1011.5 |
| 20260508084033 | 63 | 0 | 0.0 | 0.0 | 0.00 | 0.00 | 0.00 | 36 | 1011.5 |
| 20260508083033 | 64 | 0 | 0.0 | 0.0 | 0.00 | 0.00 | 0.00 | 36 | 1012.0 |
| 20260508082033 | 64 | 61 | 0.0 | 1.0 | 0.00 | 0.00 | 0.00 | 36 | 1012.0 |
| 20260508081033 | 64 | 0 | 0.0 | 0.0 | 0.00 | 0.00 | 0.00 | 36 | 1011.9 |
| 20260508080031 | 64 | 0 | 0.0 | 0.0 | 0.00 | 0.00 | 0.00 | 35 | 1012.0 |
| 20260508075033 | 65 | 0 | 0.0 | 0.0 | 0.00 | 0.00 | 0.00 | 34 | 1012.0 |
| 20260508074050 | 65 | 61 | 0.0 | 1.0 | 0.00 | 0.00 | 0.00 | 34 | 1012.1 |
| 20260508073033 | 65 | 0 | 0.0 | 0.0 | 0.00 | 0.00 | 0.00 | 34 | 1012.1 |
| 20260508072033 | 65 | 0 | 0.0 | 0.0 | 0.00 | 0.00 | 0.00 | 34 | 1012.1 |
| 20260508071033 | 65 | 0 | 0.0 | 0.0 | 0.00 | 0.00 | 0.00 | 34 | 1012.2 |
| 20260508070033 | 66 | 0 | 0.0 | 0.0 | 0.00 | 0.00 | 0.00 | 34 | 1012.0 |
| 20260508065031 | 66 | 0 | 0.0 | 0.0 | 0.00 | 0.00 | 0.00 | 33 | 1012.0 |
| 20260508064033 | 67 | 0 | 0.0 | 0.0 | 0.00 | 0.00 | 0.00 | 32 | 1012.2 |
| 20260508063033 | 67 | 0 | 0.0 | 0.0 | 0.00 | 0.00 | 0.00 | 32 | 1012.3 |
| 20260508062033 | 68 | 0 | 0.0 | 0.0 | 0.00 | 0.00 | 0.00 | 31 | 1012.3 |
| 20260508061033 | 68 | 0 | 0.0 | 0.0 | 0.00 | 0.00 | 0.00 | 30 | 1012.3 |
| 20260508060033 | 68 | 0 | 0.0 | 0.0 | 0.00 | 0.00 | 0.00 | 30 | 1012.4 |
| 20260508055033 | 68 | 0 | 0.0 | 0.0 | 0.00 | 0.00 | 0.00 | 30 | 1012.4 |
| 20260508054031 | 68 | 0 | 0.0 | 0.0 | 0.00 | 0.00 | 0.00 | 29 | 1012.2 |
| 20260508053033 | 69 | 0 | 0.0 | 0.0 | 0.00 | 0.00 | 0.00 | 29 | 1012.4 |
| 20260508052033 | 69 | 0 | 0.0 | 0.0 | 0.00 | 0.00 | 0.00 | 29 | 1012.4 |
| 20260508051033 | 70 | 0 | 0.0 | 0.0 | 0.00 | 0.00 | 0.00 | 27 | 1012.2 |
| 20260508050033 | 70 | 0 | 0.0 | 0.0 | 0.00 | 0.00 | 0.00 | 27 | 1012.1 |
| 20260508045033 | 71 | 0 | 0.0 | 0.0 | 0.00 | 0.00 | 0.00 | 26 | 1012.1 |
| 20260508044031 | 71 | 0 | 0.0 | 0.0 | 0.00 | 0.00 | 0.00 | 25 | 1012.0 |
| 20260508043031 | 72 | 0 | 0.0 | 0.0 | 0.00 | 0.00 | 0.00 | 25 | 1011.9 |
| 20260508042033 | 73 | 0 | 0.0 | 0.0 | 0.00 | 0.00 | 0.00 | 24 | 1011.9 |
| 20260508041033 | 73 | 0 | 0.0 | 0.0 | 0.00 | 0.00 | 0.00 | 23 | 1011.5 |
| 20260508040033 | 73 | 270 | 0.0 | 7.0 | 0.00 | 0.00 | 0.00 | 23 | 1011.4 |
| 20260508035033 | 74 | 0 | 0.0 | 0.0 | 0.00 | 0.00 | 0.00 | 22 | 1011.4 |
| 20260508034033 | 75 | 0 | 0.0 | 0.0 | 0.00 | 0.00 | 0.00 | 21 | 1010.8 |
| 20260508033033 | 76 | 0 | 0.0 | 0.0 | 0.00 | 0.00 | 0.00 | 20 | 1011.0 |
| 20260508032031 | 77 | 0 | 0.0 | 0.0 | 0.00 | 0.00 | 0.00 | 19 | 1011.0 |
| 20260508031033 | 78 | 28 | 0.0 | 3.0 | 0.00 | 0.00 | 0.00 | 17 | 1010.6 |
| 20260508030033 | 79 | 274 | 1.0 | 3.0 | 0.00 | 0.00 | 0.00 | 16 | 1010.1 |
| 20260508025033 | 80 | 299 | 1.0 | 6.0 | 0.00 | 0.00 | 0.00 | 15 | 1010.1 |
| 20260508024033 | 80 | 302 | 3.0 | 9.0 | 0.00 | 0.00 | 0.00 | 15 | 1009.4 |
| 20260508023033 | 81 | 301 | 3.0 | 7.0 | 0.00 | 0.00 | 0.00 | 15 | 1009.7 |
| 20260508022031 | 81 | 298 | 7.0 | 12.0 | 0.00 | 0.00 | 0.00 | 14 | 1009.7 |
| 20260508021050 | 82 | 310 | 2.0 | 7.0 | 0.00 | 0.00 | 0.00 | 14 | 1009.4 |
| 20260508020033 | 83 | 296 | 5.0 | 15.0 | 0.00 | 0.00 | 0.00 | 14 | 1008.9 |
| 20260508015033 | 83 | 297 | 4.0 | 10.0 | 0.00 | 0.00 | 0.00 | 14 | 1008.9 |
| 20260508014033 | 84 | 327 | 3.0 | 10.0 | 0.00 | 0.00 | 0.00 | 14 | 1008.9 |
| 20260508013033 | 84 | 304 | 2.0 | 7.0 | 0.00 | 0.00 | 0.00 | 14 | 1009.3 |
| 20260508012033 | 85 | 307 | 4.0 | 12.0 | 0.00 | 0.00 | 0.00 | 14 | 1009.3 |
| 20260508011031 | 85 | 1 | 2.0 | 12.0 | 0.00 | 0.00 | 0.00 | 14 | 1009.1 |
| 20260508010033 | 85 | 293 | 2.0 | 9.0 | 0.00 | 0.00 | 0.00 | 14 | 1008.9 |
| 20260508005033 | 86 | 294 | 6.0 | 12.0 | 0.00 | 0.00 | 0.00 | 14 | 1008.9 |
| 20260508004033 | 86 | 299 | 8.0 | 16.0 | 0.00 | 0.00 | 0.00 | 14 | 1008.7 |
| 20260508003033 | 86 | 296 | 5.0 | 15.0 | 0.00 | 0.00 | 0.00 | 14 | 1008.6 |
| 20260508002033 | 87 | 318 | 7.0 | 15.0 | 0.00 | 0.00 | 0.00 | 14 | 1008.6 |
| 20260508001050 | 88 | 320 | 3.0 | 12.0 | 0.00 | 0.00 | 0.00 | 14 | 1008.6 |
| 20260508000031 | 88 | 304 | 3.0 | 10.0 | 0.00 | 0.00 | 0.00 | 14 | 1008.6 |
| 20260507235033 | 88 | 322 | 3.0 | 13.0 | 0.00 | 0.00 | 0.00 | 14 | 1008.6 |
| 20260507234033 | 87 | 284 | 4.0 | 15.0 | 0.00 | 0.00 | 0.00 | 14 | 1008.6 |
| 20260507233033 | 87 | 320 | 3.0 | 10.0 | 0.00 | 0.00 | 0.00 | 14 | 1008.3 |
| 20260507232033 | 87 | 289 | 4.0 | 13.0 | 0.00 | 0.00 | 0.00 | 15 | 1008.3 |
| 20260507231033 | 87 | 301 | 9.0 | 15.0 | 0.00 | 0.00 | 0.00 | 15 | 1008.3 |
| 20260507230031 | 87 | 291 | 7.0 | 12.0 | 0.00 | 0.00 | 0.00 | 15 | 1008.5 |
| 20260507225031 | 87 | 290 | 8.0 | 18.0 | 0.00 | 0.00 | 0.00 | 15 | 1008.5 |
| 20260507224033 | 87 | 88 | 5.0 | 10.0 | 0.00 | 0.00 | 0.00 | 15 | 1008.7 |
| 20260507223033 | 87 | 46 | 0.0 | 7.0 | 0.00 | 0.00 | 0.00 | 15 | 1008.9 |
| 20260507222033 | 87 | 324 | 1.0 | 7.0 | 0.00 | 0.00 | 0.00 | 15 | 1008.9 |
| 20260507221107 | 86 | 296 | 8.0 | 15.0 | 0.00 | 0.00 | 0.00 | 15 | 1009.1 |
| 20260507220031 | 87 | 300 | 6.0 | 16.0 | 0.00 | 0.00 | 0.00 | 15 | 1009.2 |
| 20260507215031 | 87 | 294 | 6.0 | 15.0 | 0.00 | 0.00 | 0.00 | 16 | 1009.2 |
| 20260507214033 | 87 | 331 | 3.0 | 9.0 | 0.00 | 0.00 | 0.00 | 16 | 1009.4 |
| 20260507213033 | 87 | 9 | 0.0 | 7.0 | 0.00 | 0.00 | 0.00 | 16 | 1009.5 |
| 20260507212033 | 86 | 322 | 1.0 | 6.0 | 0.00 | 0.00 | 0.00 | 16 | 1009.5 |
| 20260507211033 | 86 | 356 | 0.0 | 6.0 | 0.00 | 0.00 | 0.00 | 16 | 1009.9 |
| 20260507210033 | 86 | 302 | 6.0 | 12.0 | 0.00 | 0.00 | 0.00 | 16 | 1010.1 |
| 20260507205033 | 85 | 295 | 4.0 | 9.0 | 0.00 | 0.00 | 0.00 | 16 | 1010.1 |
| 20260507204031 | 85 | 317 | 2.0 | 13.0 | 0.00 | 0.00 | 0.00 | 16 | 1010.2 |
| 20260507203033 | 85 | 305 | 2.0 | 7.0 | 0.00 | 0.00 | 0.00 | 16 | 1010.3 |
| 20260507202031 | 84 | 340 | 2.0 | 15.0 | 0.00 | 0.00 | 0.00 | 16 | 1010.3 |
| 20260507201033 | 85 | 292 | 8.0 | 19.0 | 0.00 | 0.00 | 0.00 | 16 | 1010.5 |
| 20260507200033 | 85 | 24 | 1.0 | 10.0 | 0.00 | 0.00 | 0.00 | 16 | 1010.6 |
| 20260507195033 | 85 | 23 | 2.0 | 12.0 | 0.00 | 0.00 | 0.00 | 16 | 1010.6 |
| 20260507194033 | 84 | 283 | 1.0 | 7.0 | 0.00 | 0.00 | 0.00 | 16 | 1010.8 |
| 20260507193031 | 84 | 286 | 3.0 | 10.0 | 0.00 | 0.00 | 0.00 | 16 | 1011.1 |
| 20260507192033 | 84 | 299 | 3.0 | 13.0 | 0.00 | 0.00 | 0.00 | 16 | 1011.1 |
| 20260507191050 | 84 | 305 | 2.0 | 7.0 | 0.00 | 0.00 | 0.00 | 16 | 1011.2 |
| 20260507190033 | 83 | 43 | 1.0 | 6.0 | 0.00 | 0.00 | 0.00 | 16 | 1011.6 |
| 20260507185033 | 83 | 271 | 0.0 | 4.0 | 0.00 | 0.00 | 0.00 | 16 | 1011.6 |
| 20260507184033 | 82 | 286 | 0.0 | 1.0 | 0.00 | 0.00 | 0.00 | 17 | 1011.9 |
| 20260507183048 | 82 | 27 | 0.0 | 6.0 | 0.00 | 0.00 | 0.00 | 17 | 1012.0 |
| 20260507182031 | 81 | 1 | 2.0 | 7.0 | 0.00 | 0.00 | 0.00 | 18 | 1012.0 |
| 20260507181033 | 81 | 60 | 0.0 | 4.0 | 0.00 | 0.00 | 0.00 | 19 | 1012.4 |
| 20260507180050 | 80 | 46 | 2.0 | 9.0 | 0.00 | 0.00 | 0.00 | 19 | 1012.7 |
| 20260507175033 | 79 | 24 | 2.0 | 7.0 | 0.00 | 0.00 | 0.00 | 20 | 1012.7 |
| 20260507174050 | 78 | 275 | 2.0 | 9.0 | 0.00 | 0.00 | 0.00 | 21 | 1012.9 |
| 20260507173033 | 78 | 73 | 2.0 | 6.0 | 0.00 | 0.00 | 0.00 | 21 | 1012.8 |
| 20260507172033 | 77 | 53 | 1.0 | 6.0 | 0.00 | 0.00 | 0.00 | 22 | 1012.8 |
| 20260507171105 | 77 | 32 | 1.0 | 6.0 | 0.00 | 0.00 | 0.00 | 23 | 1013.0 |
| 20260507170033 | 76 | 33 | 1.0 | 3.0 | 0.00 | 0.00 | 0.00 | 23 | 1013.3 |
| 20260507165033 | 75 | 23 | 0.0 | 3.0 | 0.00 | 0.00 | 0.00 | 24 | 1013.3 |
| 20260507164033 | 75 | 73 | 1.0 | 4.0 | 0.00 | 0.00 | 0.00 | 23 | 1013.4 |
| 20260507163033 | 75 | 72 | 0.0 | 4.0 | 0.00 | 0.00 | 0.00 | 24 | 1013.4 |
| 20260507162033 | 74 | 15 | 0.0 | 3.0 | 0.00 | 0.00 | 0.00 | 25 | 1013.4 |
| 20260507161033 | 73 | 358 | 0.0 | 3.0 | 0.00 | 0.00 | 0.00 | 26 | 1013.9 |
| 20260507160033 | 71 | 355 | 0.0 | 3.0 | 0.00 | 0.00 | 0.00 | 27 | 1014.0 |
| 20260507155033 | 70 | 0 | 0.0 | 1.0 | 0.00 | 0.00 | 0.00 | 28 | 1014.0 |
| 20260507154033 | 70 | 46 | 0.0 | 7.0 | 0.00 | 0.00 | 0.00 | 28 | 1014.3 |
| 20260507153033 | 69 | 352 | 2.0 | 6.0 | 0.00 | 0.00 | 0.00 | 29 | 1014.2 |
| 20260507152050 | 68 | 8 | 1.0 | 4.0 | 0.00 | 0.00 | 0.00 | 29 | 1014.2 |
| 20260507151033 | 67 | 47 | 0.0 | 3.0 | 0.00 | 0.00 | 0.00 | 30 | 1014.4 |
| 20260507150048 | 66 | 59 | 2.0 | 6.0 | 0.00 | 0.00 | 0.00 | 31 | 1014.4 |
| 20260507145031 | 65 | 33 | 1.0 | 6.0 | 0.00 | 0.00 | 0.00 | 31 | 1014.4 |
| 20260507144033 | 64 | 22 | 1.0 | 4.0 | 0.00 | 0.00 | 0.00 | 32 | 1014.6 |
| 20260507143033 | 63 | 39 | 2.0 | 6.0 | 0.00 | 0.00 | 0.00 | 33 | 1014.2 |
| 20260507142033 | 62 | 57 | 2.0 | 6.0 | 0.00 | 0.00 | 0.00 | 35 | 1014.2 |
| 20260507141033 | 62 | 349 | 0.0 | 3.0 | 0.00 | 0.00 | 0.00 | 38 | 1014.2 |
| 20260507140031 | 61 | 0 | 0.0 | 0.0 | 0.00 | 0.00 | 0.00 | 43 | 1014.3 |
| 20260507135048 | 59 | 0 | 0.0 | 0.0 | 0.00 | 0.00 | 0.00 | 46 | 1014.3 |
| 20260507134033 | 58 | 34 | 0.0 | 3.0 | 0.00 | 0.00 | 0.00 | 47 | 1014.3 |
| 20260507133033 | 57 | 0 | 0.0 | 0.0 | 0.00 | 0.00 | 0.00 | 49 | 1014.1 |
| 20260507132033 | 56 | 0 | 0.0 | 0.0 | 0.00 | 0.00 | 0.00 | 49 | 1014.1 |
| 20260507131050 | 55 | 34 | 0.0 | 1.0 | 0.00 | 0.00 | 0.00 | 50 | 1014.2 |
| 20260507130033 | 55 | 0 | 0.0 | 0.0 | 0.00 | 0.00 | 0.00 | 49 | 1014.0 |
| 20260507125033 | 56 | 0 | 0.0 | 0.0 | 0.00 | 0.00 | 0.00 | 48 | 1014.0 |
| 20260507124031 | 56 | 0 | 0.0 | 0.0 | 0.00 | 0.00 | 0.00 | 48 | 1014.0 |
| 20260507123033 | 55 | 333 | 0.0 | 1.0 | 0.00 | 0.00 | 0.00 | 47 | 1013.7 |
| 20260507122033 | 56 | 0 | 0.0 | 0.0 | 0.00 | 0.00 | 0.00 | 48 | 1013.7 |
| 20260507121033 | 56 | 339 | 0.0 | 3.0 | 0.00 | 0.00 | 0.00 | 47 | 1013.9 |
| 20260507120033 | 58 | 340 | 0.0 | 3.0 | 0.00 | 0.00 | 0.00 | 44 | 1013.5 |
| 20260507115033 | 59 | 64 | 0.0 | 1.0 | 0.00 | 0.00 | 0.00 | 40 | 1013.5 |
| 20260507114033 | 60 | 0 | 0.0 | 0.0 | 0.00 | 0.00 | 0.00 | 37 | 1013.4 |
| 20260507113031 | 60 | 27 | 0.0 | 1.0 | 0.00 | 0.00 | 0.00 | 36 | 1013.4 |
| 20260507112033 | 60 | 27 | 0.0 | 1.0 | 0.00 | 0.00 | 0.00 | 36 | 1013.4 |